Авиационная погода в Грозном

СКИДКИ НА СМАРТФОНЫ!

Регион: 
Погода METAR: 
URMG 091530Z 11007MPS CAVOK 29/09 Q1014 R08/090070 NOSIG RMK QFE746/0995
Время наблюдения
2022-08-09T15:30:00Z
Температура C
29.0
Точка росы
9.0
Направление ветра
110
Скорость ветра (узлы)
14
Метео видимость
6.21
Облачность
CAVOK
Нижняя граница облачности (футы)
Явления погоды
Условия полета
VFR
Аэропорт подробнее: 

Скидки на навигаторы!